createdAt,value
2022-09-29T00:00:35.523Z,2.67
2022-09-29T00:03:03.409Z,2.97
2022-09-29T00:05:32.213Z,5.43
2022-09-29T00:08:00.467Z,2.90
2022-09-29T00:10:28.244Z,2.50
2022-09-29T00:12:56.035Z,2.77
2022-09-29T00:15:25.145Z,2.57
2022-09-29T00:18:12.593Z,3.07
2022-09-29T00:20:40.720Z,2.83
2022-09-29T00:23:08.563Z,3.13
2022-09-29T00:25:37.372Z,2.90
2022-09-29T00:28:05.146Z,2.87
2022-09-29T00:30:34.240Z,2.23
2022-09-29T00:33:02.007Z,3.30
2022-09-29T00:35:29.756Z,2.73
2022-09-29T00:37:57.528Z,2.70
2022-09-29T00:40:25.363Z,2.80
2022-09-29T00:42:53.173Z,2.60
2022-09-29T00:45:23.320Z,2.80
2022-09-29T00:48:02.731Z,3.13
2022-09-29T00:50:45.917Z,3.50
2022-09-29T00:53:19.152Z,3.70
2022-09-29T00:55:52.234Z,3.40
2022-09-29T00:58:26.332Z,2.83
2022-09-29T01:00:54.970Z,4.13
2022-09-29T01:03:26.258Z,3.10
2022-09-29T01:05:58.778Z,3.13
2022-09-29T01:08:31.351Z,3.40
2022-09-29T01:11:01.728Z,4.47
2022-09-29T01:13:30.429Z,2.90
2022-09-29T01:15:58.257Z,3.00
2022-09-29T01:18:27.692Z,2.90
2022-09-29T01:21:02.606Z,3.55
2022-09-29T01:24:03.095Z,4.10
2022-09-29T01:26:59.634Z,3.53
2022-09-29T01:30:07.068Z,3.60
2022-09-29T01:32:48.728Z,2.90
2022-09-29T01:35:23.502Z,3.10
2022-09-29T01:38:03.291Z,3.03
2022-09-29T01:40:39.239Z,3.70
2022-09-29T01:43:11.827Z,4.57
2022-09-29T01:45:45.154Z,3.20
2022-09-29T01:48:19.474Z,2.90
2022-09-29T01:50:50.314Z,3.27
2022-09-29T01:53:23.195Z,3.43
2022-09-29T01:55:54.405Z,3.37
2022-09-29T01:58:26.365Z,3.40
2022-09-29T02:00:59.556Z,3.80
2022-09-29T02:03:36.077Z,3.07
2022-09-29T02:06:08.914Z,3.43
2022-09-29T02:08:42.188Z,3.00
2022-09-29T02:11:12.328Z,3.67
2022-09-29T02:13:43.859Z,2.93
2022-09-29T02:16:15.126Z,3.63
2022-09-29T02:18:54.072Z,4.47
2022-09-29T02:21:24.633Z,3.20
2022-09-29T02:23:53.425Z,3.97
2022-09-29T02:26:22.177Z,3.40
2022-09-29T02:28:52.151Z,3.30
2022-09-29T02:31:20.677Z,3.53
2022-09-29T02:33:49.842Z,3.40
2022-09-29T02:36:26.015Z,3.90
2022-09-29T02:39:00.337Z,3.90
2022-09-29T02:41:37.229Z,3.70
2022-09-29T02:44:17.953Z,3.20
2022-09-29T02:46:59.046Z,3.63
2022-09-29T02:49:37.824Z,3.43
2022-09-29T02:52:14.461Z,3.03
2022-09-29T02:54:56.626Z,4.33
2022-09-29T02:57:32.295Z,3.60
2022-09-29T03:00:09.725Z,3.60
2022-09-29T03:02:38.841Z,3.50
2022-09-29T03:05:10.977Z,3.77
2022-09-29T03:07:39.601Z,3.33
2022-09-29T03:10:09.531Z,3.00
2022-09-29T03:12:37.875Z,3.60
2022-09-29T03:15:07.082Z,3.80
2022-09-29T03:17:35.092Z,4.88
2022-09-29T03:20:03.307Z,4.30
2022-09-29T03:22:32.595Z,5.53
2022-09-29T03:25:00.407Z,3.70
2022-09-29T03:27:28.194Z,3.83
2022-09-29T03:29:55.967Z,4.10
2022-09-29T03:32:23.751Z,3.30
2022-09-29T03:34:51.696Z,4.20
2022-09-29T03:37:19.483Z,3.80
2022-09-29T03:39:48.619Z,3.37
2022-09-29T03:42:17.053Z,3.97
2022-09-29T03:44:44.881Z,4.03
2022-09-29T03:47:12.654Z,3.70
2022-09-29T03:49:40.421Z,4.00
2022-09-29T03:52:08.363Z,3.93
2022-09-29T03:54:36.140Z,3.53
2022-09-29T03:57:05.456Z,3.80
2022-09-29T03:59:33.239Z,4.60
2022-09-29T04:02:01.082Z,5.20
2022-09-29T04:04:29.002Z,4.50
2022-09-29T04:06:56.791Z,4.80
2022-09-29T04:09:24.587Z,4.80
2022-09-29T04:11:52.370Z,5.70
2022-09-29T04:14:21.493Z,6.07
2022-09-29T04:16:49.395Z,5.53
2022-09-29T04:19:17.284Z,5.87
2022-09-29T04:21:45.879Z,5.93
2022-09-29T04:24:13.712Z,5.40
2022-09-29T04:26:41.482Z,4.97
2022-09-29T04:29:09.408Z,4.97
2022-09-29T04:31:38.602Z,7.27
2022-09-29T04:34:06.451Z,5.30
2022-09-29T04:36:34.213Z,5.10
2022-09-29T04:39:01.996Z,5.57
2022-09-29T04:41:33.402Z,6.00
2022-09-29T04:44:01.251Z,4.60
2022-09-29T04:46:29.377Z,5.27
2022-09-29T04:48:58.528Z,6.10
2022-09-29T04:51:26.337Z,6.00
2022-09-29T04:53:54.258Z,5.87
2022-09-29T04:56:22.126Z,5.80
2022-09-29T04:58:49.934Z,4.80
2022-09-29T05:01:17.885Z,5.97
2022-09-29T05:03:45.763Z,5.90
2022-09-29T05:06:14.879Z,5.90
2022-09-29T05:08:42.722Z,6.77
2022-09-29T05:11:11.776Z,6.47
2022-09-29T05:13:39.597Z,5.60
2022-09-29T05:16:07.971Z,6.47
2022-09-29T05:18:36.111Z,6.20
2022-09-29T05:21:26.545Z,5.40
2022-09-29T05:23:54.210Z,6.00
2022-09-29T05:26:21.984Z,6.33
2022-09-29T05:28:50.129Z,5.87
2022-09-29T05:31:19.004Z,6.43
2022-09-29T05:33:46.902Z,6.70
2022-09-29T05:36:15.157Z,6.33
2022-09-29T05:38:42.931Z,6.57
2022-09-29T05:41:13.321Z,6.27
2022-09-29T05:43:41.782Z,6.00
2022-09-29T05:46:11.282Z,6.97
2022-09-29T05:48:39.374Z,7.13
2022-09-29T05:51:12.092Z,8.13
2022-09-29T05:53:40.218Z,8.17
2022-09-29T05:56:09.269Z,7.90
2022-09-29T05:58:39.859Z,8.37
2022-09-29T06:01:08.791Z,8.20
2022-09-29T06:03:37.390Z,9.37
2022-09-29T06:06:09.701Z,10.23
2022-09-29T06:08:38.432Z,10.13
2022-09-29T06:11:08.143Z,8.37
2022-09-29T06:13:39.969Z,9.13
2022-09-29T06:16:08.696Z,8.73
2022-09-29T06:18:37.173Z,9.77
2022-09-29T06:21:06.785Z,12.07
2022-09-29T06:23:35.416Z,10.47
2022-09-29T06:26:05.434Z,10.00
2022-09-29T06:28:33.763Z,10.70
2022-09-29T06:31:05.116Z,9.67
2022-09-29T06:33:34.605Z,10.37
2022-09-29T06:36:23.854Z,9.97
2022-09-29T06:38:51.653Z,12.13
2022-09-29T06:41:19.436Z,11.00
2022-09-29T06:43:47.238Z,11.47
2022-09-29T06:46:16.549Z,10.50
2022-09-29T06:48:44.456Z,11.93
2022-09-29T06:51:12.397Z,10.80
2022-09-29T06:53:40.168Z,12.30
2022-09-29T06:56:08.948Z,12.03
2022-09-29T06:58:37.056Z,13.17
2022-09-29T07:01:06.577Z,11.80
2022-09-29T07:03:36.243Z,12.30
2022-09-29T07:06:20.493Z,12.93
2022-09-29T07:08:48.621Z,14.20
2022-09-29T07:11:16.843Z,13.33
2022-09-29T07:13:44.721Z,12.70
2022-09-29T07:16:14.440Z,13.93
2022-09-29T07:18:44.746Z,15.57
2022-09-29T07:21:16.676Z,16.90
2022-09-29T07:23:46.045Z,15.67
2022-09-29T07:26:14.520Z,16.67
2022-09-29T07:28:42.391Z,16.90
2022-09-29T07:31:15.501Z,18.13
2022-09-29T07:33:45.900Z,18.63
2022-09-29T07:36:14.312Z,16.37
2022-09-29T07:38:42.620Z,17.90
2022-09-29T07:41:12.137Z,19.97
2022-09-29T07:43:40.712Z,15.40
2022-09-29T07:46:09.577Z,15.50
2022-09-29T07:48:39.027Z,14.47
2022-09-29T07:51:11.365Z,14.00
2022-09-29T07:53:39.817Z,15.50
2022-09-29T07:56:09.523Z,13.70
2022-09-29T07:58:38.564Z,13.37
2022-09-29T08:01:10.569Z,12.37
2022-09-29T08:03:39.388Z,14.00
2022-09-29T08:06:09.581Z,11.80
2022-09-29T08:08:37.931Z,11.63
2022-09-29T08:11:07.249Z,11.50
2022-09-29T08:13:36.295Z,11.03
2022-09-29T08:16:06.335Z,11.47
2022-09-29T08:18:35.334Z,12.47
2022-09-29T08:21:04.182Z,10.73
2022-09-29T08:23:36.994Z,10.60
2022-09-29T08:26:06.562Z,10.57
2022-09-29T08:28:36.868Z,9.10
2022-09-29T08:31:05.149Z,8.47
2022-09-29T08:33:33.770Z,7.37
2022-09-29T08:36:03.678Z,7.90
2022-09-29T08:38:35.006Z,7.20
2022-09-29T08:41:05.468Z,7.20
2022-09-29T08:43:38.402Z,8.27
2022-09-29T08:46:12.973Z,8.03
2022-09-29T08:48:55.049Z,7.13
2022-09-29T08:51:41.512Z,7.03
2022-09-29T08:54:38.613Z,6.73
2022-09-29T08:57:08.645Z,7.60
2022-09-29T08:59:37.888Z,6.90
2022-09-29T09:02:24.312Z,7.50
2022-09-29T09:05:13.393Z,7.20
2022-09-29T09:07:51.378Z,7.50
2022-09-29T09:10:32.025Z,7.50
2022-09-29T09:13:11.058Z,7.07
2022-09-29T09:15:53.033Z,6.30
2022-09-29T09:21:38.893Z,7.00
2022-09-29T09:24:18.422Z,5.83
2022-09-29T09:26:49.395Z,5.10
2022-09-29T09:29:24.385Z,4.47
2022-09-29T09:31:57.694Z,4.30
2022-09-29T09:34:41.604Z,2.70
2022-09-29T09:37:17.315Z,2.70
2022-09-29T09:39:52.356Z,2.60
2022-09-29T09:42:25.375Z,3.00
2022-09-29T09:44:58.114Z,2.70
2022-09-29T09:47:27.972Z,2.40
2022-09-29T09:49:58.806Z,3.30
2022-09-29T09:52:34.441Z,3.30
2022-09-29T09:55:06.694Z,3.23
2022-09-29T09:58:08.655Z,3.50
2022-09-29T10:00:41.134Z,2.73
2022-09-29T10:03:10.036Z,2.83
2022-09-29T10:05:40.483Z,2.40
2022-09-29T10:08:13.791Z,2.80
2022-09-29T10:10:51.327Z,2.20
2022-09-29T10:13:28.513Z,2.87
2022-09-29T10:15:59.398Z,3.00
2022-09-29T10:18:31.908Z,2.83
2022-09-29T10:20:59.748Z,2.70
2022-09-29T10:23:32.959Z,2.07
2022-09-29T10:26:05.254Z,2.13
2022-09-29T10:28:42.790Z,1.70
2022-09-29T10:31:22.836Z,2.10
2022-09-29T10:33:54.323Z,1.60
2022-09-29T10:36:23.709Z,2.70
2022-09-29T10:38:54.404Z,1.40
2022-09-29T10:41:22.186Z,1.40
2022-09-29T10:43:52.919Z,1.43
2022-09-29T10:46:45.911Z,2.37
2022-09-29T10:49:16.507Z,1.30
2022-09-29T10:51:54.950Z,2.03
2022-09-29T10:54:26.747Z,1.83
2022-09-29T10:56:56.480Z,1.33
2022-09-29T10:59:27.341Z,1.40
2022-09-29T11:01:58.436Z,1.23
2022-09-29T11:04:29.683Z,1.60
2022-09-29T11:06:58.465Z,1.37
2022-09-29T11:09:31.560Z,1.33
2022-09-29T11:12:03.234Z,1.47
2022-09-29T11:14:42.602Z,1.40
2022-09-29T11:17:23.492Z,1.23
2022-09-29T11:19:52.496Z,1.70
2022-09-29T11:22:56.406Z,1.50
2022-09-29T11:25:53.740Z,1.60
2022-09-29T11:28:39.961Z,1.90
2022-09-29T11:31:26.820Z,2.20
2022-09-29T11:34:03.707Z,1.20
2022-09-29T11:36:39.220Z,1.40
2022-09-29T11:39:21.102Z,1.13
2022-09-29T11:42:05.697Z,1.10
2022-09-29T11:44:51.572Z,1.37
2022-09-29T11:47:45.021Z,1.50
2022-09-29T11:50:32.915Z,1.30
2022-09-29T11:53:15.196Z,1.50
2022-09-29T11:55:54.125Z,1.40
2022-09-29T11:58:35.252Z,1.60
2022-09-29T12:01:14.951Z,1.60
2022-09-29T12:03:49.637Z,1.40
2022-09-29T12:06:50.659Z,1.30
2022-09-29T12:09:37.065Z,1.53
2022-09-29T12:12:29.325Z,1.47
2022-09-29T12:15:08.855Z,1.40
2022-09-29T12:17:41.029Z,1.30
2022-09-29T12:20:19.508Z,1.17
2022-09-29T12:22:49.612Z,1.30
2022-09-29T12:25:22.296Z,1.40
2022-09-29T12:27:52.862Z,1.27
2022-09-29T12:30:25.708Z,1.30
2022-09-29T12:32:58.820Z,1.57
2022-09-29T12:35:35.681Z,1.07
2022-09-29T12:38:16.726Z,1.60
2022-09-29T12:40:48.886Z,1.33
2022-09-29T12:43:25.053Z,1.10
2022-09-29T12:46:00.954Z,1.57
2022-09-29T12:48:47.372Z,1.10
2022-09-29T12:51:24.040Z,1.43
2022-09-29T12:54:03.370Z,1.40
2022-09-29T12:56:36.092Z,1.60
2022-09-29T12:59:09.066Z,1.30
2022-09-29T13:01:39.069Z,1.30
2022-09-29T13:04:50.264Z,1.60
2022-09-29T13:07:57.851Z,1.50
2022-09-29T13:11:13.457Z,1.30
2022-09-29T13:14:05.812Z,1.40
2022-09-29T13:16:47.144Z,1.20
2022-09-29T13:19:57.959Z,1.43
2022-09-29T13:22:52.007Z,1.13
2022-09-29T13:25:28.748Z,1.20
2022-09-29T13:27:58.591Z,1.37
2022-09-29T13:30:28.999Z,1.00
2022-09-29T13:33:02.342Z,1.70
2022-09-29T13:35:38.244Z,1.30
2022-09-29T13:38:08.727Z,1.10
2022-09-29T13:40:37.864Z,1.00
2022-09-29T13:43:06.272Z,0.90
2022-09-29T13:45:41.254Z,1.33
2022-09-29T13:48:51.169Z,0.80
2022-09-29T13:51:45.665Z,1.07
2022-09-29T13:54:44.305Z,1.20
2022-09-29T13:57:31.485Z,1.10
2022-09-29T14:00:25.808Z,1.00
2022-09-29T14:03:22.137Z,1.03
2022-09-29T14:06:36.461Z,1.00
2022-09-29T14:09:08.147Z,1.00
2022-09-29T14:11:38.689Z,1.00
2022-09-29T14:14:16.474Z,1.00
2022-09-29T14:16:54.762Z,1.10
2022-09-29T14:19:39.065Z,1.10
2022-09-29T14:22:29.554Z,1.20
2022-09-29T14:25:18.775Z,0.90
2022-09-29T14:27:59.129Z,1.10
2022-09-29T14:30:43.843Z,1.00
2022-09-29T14:33:16.854Z,1.17
2022-09-29T14:35:50.357Z,1.10
2022-09-29T14:38:23.005Z,1.27
2022-09-29T14:40:59.127Z,1.00
2022-09-29T14:43:36.830Z,0.93
2022-09-29T14:46:50.067Z,1.07
2022-09-29T14:50:02.457Z,1.10
2022-09-29T14:52:42.852Z,1.20
2022-09-29T14:55:18.582Z,1.23
2022-09-29T14:58:03.446Z,1.10
2022-09-29T15:00:42.979Z,1.27
2022-09-29T15:03:27.634Z,1.20
2022-09-29T15:06:11.879Z,1.00
2022-09-29T15:08:40.387Z,1.07
2022-09-29T15:11:25.628Z,1.23
2022-09-29T15:13:55.219Z,0.90
2022-09-29T15:16:30.775Z,1.00
2022-09-29T15:19:24.027Z,1.03
2022-09-29T15:22:01.275Z,1.10
2022-09-29T15:24:58.428Z,1.07
2022-09-29T15:27:26.380Z,1.10
2022-09-29T15:29:57.055Z,0.97
2022-09-29T15:32:27.917Z,1.00
2022-09-29T15:35:08.156Z,1.10
2022-09-29T15:37:56.783Z,1.40
2022-09-29T15:40:27.194Z,1.00
2022-09-29T15:42:55.742Z,1.10
2022-09-29T15:45:27.419Z,1.00
2022-09-29T15:48:04.840Z,1.13
2022-09-29T15:50:42.033Z,0.90
2022-09-29T15:53:12.081Z,0.97
2022-09-29T15:55:40.078Z,1.00
2022-09-29T15:58:43.596Z,1.40
2022-09-29T16:01:13.806Z,1.43
2022-09-29T16:03:46.587Z,1.57
2022-09-29T16:06:31.700Z,1.10
2022-09-29T16:09:02.853Z,1.00
2022-09-29T16:11:34.332Z,1.20
2022-09-29T16:14:05.889Z,1.30
2022-09-29T16:16:36.592Z,0.90
2022-09-29T16:19:10.653Z,0.93
2022-09-29T16:21:42.126Z,1.00
2022-09-29T16:24:18.575Z,1.40
2022-09-29T16:26:49.044Z,1.27
2022-09-29T16:29:31.567Z,1.10
2022-09-29T16:32:01.220Z,1.97
2022-09-29T16:34:32.182Z,1.00
2022-09-29T16:37:03.947Z,1.20
2022-09-29T16:39:34.289Z,1.40
2022-09-29T16:42:05.231Z,1.10
2022-09-29T16:44:35.124Z,1.30
2022-09-29T16:47:13.273Z,1.20
2022-09-29T16:49:47.847Z,1.20
2022-09-29T16:52:23.090Z,1.10
2022-09-29T16:54:52.243Z,1.23
2022-09-29T16:57:25.259Z,1.00
2022-09-29T16:59:54.951Z,1.20
2022-09-29T17:02:23.812Z,0.90
2022-09-29T17:04:52.347Z,1.20
2022-09-29T17:07:23.034Z,1.20
2022-09-29T17:09:55.261Z,1.10
2022-09-29T17:12:24.188Z,1.30
2022-09-29T17:14:52.237Z,1.70
2022-09-29T17:17:22.821Z,1.47
2022-09-29T17:19:51.199Z,1.40
2022-09-29T17:22:32.050Z,1.40
2022-09-29T17:25:00.300Z,1.47
2022-09-29T17:27:46.859Z,1.30
2022-09-29T17:30:18.571Z,1.20
2022-09-29T17:32:46.649Z,1.40
2022-09-29T17:35:14.784Z,1.23
2022-09-29T17:37:46.622Z,1.10
2022-09-29T17:40:21.824Z,1.30
2022-09-29T17:42:49.953Z,1.45
2022-09-29T17:45:19.391Z,1.60
2022-09-29T17:47:48.491Z,1.57
2022-09-29T17:50:23.291Z,1.57
2022-09-29T17:52:52.796Z,1.30
2022-09-29T17:55:22.919Z,1.33
2022-09-29T17:57:52.201Z,1.60
2022-09-29T18:00:22.464Z,1.23
2022-09-29T18:02:51.001Z,1.30
2022-09-29T18:05:22.607Z,1.63
2022-09-29T18:07:52.419Z,1.30
2022-09-29T18:10:23.254Z,1.47
2022-09-29T18:12:51.066Z,1.50
2022-09-29T18:15:18.879Z,1.40
2022-09-29T18:17:46.987Z,1.70
2022-09-29T18:20:17.209Z,2.00
2022-09-29T18:22:47.075Z,1.90
2022-09-29T18:25:17.721Z,1.47
2022-09-29T18:27:46.313Z,1.53
2022-09-29T18:30:20.354Z,3.30
2022-09-29T18:32:49.595Z,2.03
2022-09-29T18:35:19.463Z,2.47
2022-09-29T18:37:47.471Z,1.80
2022-09-29T18:40:16.819Z,2.13
2022-09-29T18:42:46.767Z,1.77
2022-09-29T18:45:17.047Z,2.13
2022-09-29T18:47:45.593Z,2.30
2022-09-29T18:50:16.136Z,3.17
2022-09-29T18:52:44.010Z,2.50
2022-09-29T18:55:12.185Z,2.60
2022-09-29T18:57:42.401Z,2.53
2022-09-29T19:00:14.321Z,2.60
2022-09-29T19:02:42.448Z,3.03
2022-09-29T19:05:16.724Z,3.03
2022-09-29T19:07:44.722Z,2.97
2022-09-29T19:10:14.195Z,2.80
2022-09-29T19:12:45.573Z,3.40
2022-09-29T19:15:13.857Z,3.43
2022-09-29T19:17:41.678Z,3.50
2022-09-29T19:20:10.846Z,3.60
2022-09-29T19:22:42.328Z,3.30
2022-09-29T19:25:13.185Z,2.90
2022-09-29T19:27:42.040Z,3.23
2022-09-29T19:30:12.596Z,3.90
2022-09-29T19:32:40.745Z,3.60
2022-09-29T19:35:12.908Z,3.87
2022-09-29T19:37:41.144Z,3.80
2022-09-29T19:40:11.992Z,3.07
2022-09-29T19:42:39.751Z,3.90
2022-09-29T19:45:08.817Z,3.37
2022-09-29T19:47:38.442Z,4.43
2022-09-29T19:50:24.589Z,3.70
2022-09-29T19:52:52.575Z,4.00
2022-09-29T19:55:20.477Z,3.77
2022-09-29T19:57:48.549Z,3.37
2022-09-29T20:00:19.452Z,3.67
2022-09-29T20:02:48.896Z,3.43
2022-09-29T20:05:17.387Z,3.17
2022-09-29T20:07:45.444Z,3.40
2022-09-29T20:10:14.687Z,3.73
2022-09-29T20:12:43.266Z,3.57
2022-09-29T20:15:12.325Z,3.90
2022-09-29T20:17:41.092Z,2.97
2022-09-29T20:20:11.719Z,3.70
2022-09-29T20:22:39.962Z,3.90
2022-09-29T20:25:08.942Z,3.53
2022-09-29T20:27:36.943Z,3.40
2022-09-29T20:30:06.084Z,2.80
2022-09-29T20:32:34.600Z,3.70
2022-09-29T20:35:02.571Z,3.70
2022-09-29T20:37:31.697Z,3.40
2022-09-29T20:40:00.343Z,4.20
2022-09-29T20:42:29.179Z,4.20
2022-09-29T20:44:57.001Z,3.53
2022-09-29T20:47:25.768Z,3.17
2022-09-29T20:49:56.362Z,4.03
2022-09-29T20:52:24.299Z,4.00
2022-09-29T20:54:53.510Z,3.53
2022-09-29T20:57:21.293Z,3.77
2022-09-29T20:59:49.446Z,3.90
2022-09-29T21:02:17.272Z,4.40
2022-09-29T21:04:45.164Z,3.87
2022-09-29T21:07:26.893Z,4.20
2022-09-29T21:09:56.104Z,4.00
2022-09-29T21:12:24.221Z,4.40
2022-09-29T21:14:52.076Z,4.17
2022-09-29T21:17:20.078Z,4.20
2022-09-29T21:19:48.409Z,3.67
2022-09-29T21:22:16.243Z,4.50
2022-09-29T21:24:45.052Z,3.20
2022-09-29T21:27:14.208Z,4.03
2022-09-29T21:29:41.974Z,4.20
2022-09-29T21:32:09.778Z,3.57
2022-09-29T21:34:37.615Z,3.57
2022-09-29T21:37:05.390Z,3.60
2022-09-29T21:39:33.326Z,3.90
2022-09-29T21:42:01.137Z,3.93
2022-09-29T21:44:30.473Z,3.57
2022-09-29T21:46:58.548Z,4.10
2022-09-29T21:49:26.796Z,3.50
2022-09-29T21:51:55.700Z,3.43
2022-09-29T21:54:25.998Z,4.00
2022-09-29T21:56:54.270Z,3.43
2022-09-29T21:59:23.389Z,3.70
2022-09-29T22:01:53.314Z,3.10
2022-09-29T22:04:21.986Z,3.47
2022-09-29T22:06:49.807Z,4.03
2022-09-29T22:09:20.584Z,3.10
2022-09-29T22:11:49.880Z,3.80
2022-09-29T22:14:23.950Z,3.80
2022-09-29T22:16:53.360Z,3.37
2022-09-29T22:19:32.467Z,3.17
2022-09-29T22:22:00.415Z,3.30
2022-09-29T22:24:28.769Z,3.47
2022-09-29T22:26:56.818Z,3.20
2022-09-29T22:29:25.070Z,3.30
2022-09-29T22:31:54.387Z,3.07
2022-09-29T22:34:22.218Z,3.70
2022-09-29T22:36:50.063Z,3.07
2022-09-29T22:39:17.900Z,3.20
2022-09-29T22:41:45.853Z,2.80
2022-09-29T22:44:13.672Z,3.33
2022-09-29T22:46:41.581Z,2.90
2022-09-29T22:49:11.512Z,3.53
2022-09-29T22:51:39.316Z,3.80
2022-09-29T22:54:07.873Z,3.60
2022-09-29T22:56:35.633Z,3.10
2022-09-29T22:59:05.597Z,3.57
2022-09-29T23:01:34.297Z,2.87
2022-09-29T23:04:03.951Z,3.60
2022-09-29T23:06:33.412Z,3.53
2022-09-29T23:09:01.570Z,3.60
2022-09-29T23:11:30.009Z,3.20
2022-09-29T23:14:00.200Z,3.00
2022-09-29T23:16:28.346Z,3.70
2022-09-29T23:18:58.489Z,3.03
2022-09-29T23:21:26.595Z,3.27
2022-09-29T23:23:59.315Z,3.40
2022-09-29T23:26:28.491Z,3.10
2022-09-29T23:28:56.635Z,2.83
2022-09-29T23:31:24.712Z,3.60
2022-09-29T23:33:53.253Z,3.70
2022-09-29T23:36:21.217Z,3.80
2022-09-29T23:39:07.078Z,3.67
2022-09-29T23:41:36.776Z,3.73
2022-09-29T23:44:06.267Z,3.00
2022-09-29T23:46:36.070Z,4.03
2022-09-29T23:49:09.296Z,3.20
2022-09-29T23:51:38.694Z,3.40
2022-09-29T23:54:07.224Z,3.17
2022-09-29T23:56:36.605Z,3.47
2022-09-29T23:59:05.091Z,3.67
